sensor_id;sensor_type;location;lat;lon;timestamp;temperature;humidity
14585;DHT22;7379;51.506;11.876;2022-12-11T00:01:54;2.50;72.20
14585;DHT22;7379;51.506;11.876;2022-12-11T00:04:20;2.50;72.20
14585;DHT22;7379;51.506;11.876;2022-12-11T00:06:47;2.50;72.20
14585;DHT22;7379;51.506;11.876;2022-12-11T00:09:15;2.50;72.20
14585;DHT22;7379;51.506;11.876;2022-12-11T00:11:42;2.50;72.20
14585;DHT22;7379;51.506;11.876;2022-12-11T00:14:09;2.50;72.20
14585;DHT22;7379;51.506;11.876;2022-12-11T00:16:36;2.50;72.20
14585;DHT22;7379;51.506;11.876;2022-12-11T00:19:04;2.50;72.20
14585;DHT22;7379;51.506;11.876;2022-12-11T00:21:31;2.50;72.20
14585;DHT22;7379;51.506;11.876;2022-12-11T00:23:58;2.50;72.20
14585;DHT22;7379;51.506;11.876;2022-12-11T00:26:25;2.50;72.20
14585;DHT22;7379;51.506;11.876;2022-12-11T00:28:53;2.50;72.20
14585;DHT22;7379;51.506;11.876;2022-12-11T00:31:21;2.50;72.10
14585;DHT22;7379;51.506;11.876;2022-12-11T00:33:49;2.50;72.20
14585;DHT22;7379;51.506;11.876;2022-12-11T00:36:19;2.50;72.10
14585;DHT22;7379;51.506;11.876;2022-12-11T00:38:46;2.50;72.10
14585;DHT22;7379;51.506;11.876;2022-12-11T00:41:13;2.50;72.10
14585;DHT22;7379;51.506;11.876;2022-12-11T00:43:40;2.50;72.10
14585;DHT22;7379;51.506;11.876;2022-12-11T00:46:07;2.50;72.10
14585;DHT22;7379;51.506;11.876;2022-12-11T00:48:34;2.50;72.20
14585;DHT22;7379;51.506;11.876;2022-12-11T00:51:01;2.50;72.10
14585;DHT22;7379;51.506;11.876;2022-12-11T00:53:29;2.50;72.10
14585;DHT22;7379;51.506;11.876;2022-12-11T00:55:56;2.50;72.10
14585;DHT22;7379;51.506;11.876;2022-12-11T00:58:23;2.50;72.10
14585;DHT22;7379;51.506;11.876;2022-12-11T01:00:51;2.50;72.10
14585;DHT22;7379;51.506;11.876;2022-12-11T01:03:17;2.50;72.10
14585;DHT22;7379;51.506;11.876;2022-12-11T01:05:51;2.50;72.10
14585;DHT22;7379;51.506;11.876;2022-12-11T01:08:18;2.50;72.10
14585;DHT22;7379;51.506;11.876;2022-12-11T01:10:46;2.50;72.10
14585;DHT22;7379;51.506;11.876;2022-12-11T01:13:12;2.50;72.10
14585;DHT22;7379;51.506;11.876;2022-12-11T01:15:40;2.50;72.10
14585;DHT22;7379;51.506;11.876;2022-12-11T01:18:08;2.50;72.10
14585;DHT22;7379;51.506;11.876;2022-12-11T01:20:37;2.50;72.80
14585;DHT22;7379;51.506;11.876;2022-12-11T01:23:04;2.50;72.00
14585;DHT22;7379;51.506;11.876;2022-12-11T01:25:31;2.50;71.90
14585;DHT22;7379;51.506;11.876;2022-12-11T01:27:59;2.50;71.90
14585;DHT22;7379;51.506;11.876;2022-12-11T01:30:26;2.40;71.80
14585;DHT22;7379;51.506;11.876;2022-12-11T01:32:53;2.40;71.70
14585;DHT22;7379;51.506;11.876;2022-12-11T01:35:20;2.40;71.70
14585;DHT22;7379;51.506;11.876;2022-12-11T01:37:48;2.40;71.60
14585;DHT22;7379;51.506;11.876;2022-12-11T01:40:16;2.50;71.60
14585;DHT22;7379;51.506;11.876;2022-12-11T01:42:44;2.40;71.50
14585;DHT22;7379;51.506;11.876;2022-12-11T01:45:29;2.40;71.40
14585;DHT22;7379;51.506;11.876;2022-12-11T01:48:00;2.40;71.30
14585;DHT22;7379;51.506;11.876;2022-12-11T01:50:30;2.40;71.40
14585;DHT22;7379;51.506;11.876;2022-12-11T01:52:59;2.40;71.30
14585;DHT22;7379;51.506;11.876;2022-12-11T01:55:26;2.40;71.30
14585;DHT22;7379;51.506;11.876;2022-12-11T01:57:53;2.40;71.30
14585;DHT22;7379;51.506;11.876;2022-12-11T02:00:20;2.40;71.30
14585;DHT22;7379;51.506;11.876;2022-12-11T02:02:48;2.40;71.20
14585;DHT22;7379;51.506;11.876;2022-12-11T02:05:15;2.40;71.20
14585;DHT22;7379;51.506;11.876;2022-12-11T02:07:46;2.40;71.10
14585;DHT22;7379;51.506;11.876;2022-12-11T02:10:14;2.40;71.10
14585;DHT22;7379;51.506;11.876;2022-12-11T02:12:50;2.40;71.10
14585;DHT22;7379;51.506;11.876;2022-12-11T02:15:30;2.40;71.10
14585;DHT22;7379;51.506;11.876;2022-12-11T02:18:10;2.40;71.10
14585;DHT22;7379;51.506;11.876;2022-12-11T02:20:41;2.40;71.10
14585;DHT22;7379;51.506;11.876;2022-12-11T02:23:29;2.40;71.10
14585;DHT22;7379;51.506;11.876;2022-12-11T02:26:10;2.40;71.10
14585;DHT22;7379;51.506;11.876;2022-12-11T02:28:44;2.40;71.10
14585;DHT22;7379;51.506;11.876;2022-12-11T02:31:16;2.40;71.00
14585;DHT22;7379;51.506;11.876;2022-12-11T02:33:52;2.30;70.90
14585;DHT22;7379;51.506;11.876;2022-12-11T02:36:23;2.40;71.10
14585;DHT22;7379;51.506;11.876;2022-12-11T02:38:52;2.40;71.10
14585;DHT22;7379;51.506;11.876;2022-12-11T02:41:21;2.30;71.00
14585;DHT22;7379;51.506;11.876;2022-12-11T02:43:50;2.40;71.10
14585;DHT22;7379;51.506;11.876;2022-12-11T02:46:20;2.30;71.00
14585;DHT22;7379;51.506;11.876;2022-12-11T02:48:48;2.40;71.00
14585;DHT22;7379;51.506;11.876;2022-12-11T02:51:21;2.30;70.80
14585;DHT22;7379;51.506;11.876;2022-12-11T02:53:50;2.30;70.80
14585;DHT22;7379;51.506;11.876;2022-12-11T02:56:23;2.30;70.80
14585;DHT22;7379;51.506;11.876;2022-12-11T02:58:56;2.30;70.90
14585;DHT22;7379;51.506;11.876;2022-12-11T03:01:24;2.30;70.90
14585;DHT22;7379;51.506;11.876;2022-12-11T03:03:51;2.30;70.90
14585;DHT22;7379;51.506;11.876;2022-12-11T03:06:22;2.30;70.80
14585;DHT22;7379;51.506;11.876;2022-12-11T03:08:49;2.30;70.70
14585;DHT22;7379;51.506;11.876;2022-12-11T03:11:17;2.30;70.70
14585;DHT22;7379;51.506;11.876;2022-12-11T03:13:43;2.30;70.70
14585;DHT22;7379;51.506;11.876;2022-12-11T03:16:17;2.30;70.50
14585;DHT22;7379;51.506;11.876;2022-12-11T03:18:51;2.30;70.50
14585;DHT22;7379;51.506;11.876;2022-12-11T03:21:24;2.30;70.40
14585;DHT22;7379;51.506;11.876;2022-12-11T03:23:58;2.30;70.50
14585;DHT22;7379;51.506;11.876;2022-12-11T03:26:31;2.30;70.40
14585;DHT22;7379;51.506;11.876;2022-12-11T03:29:05;2.30;70.40
14585;DHT22;7379;51.506;11.876;2022-12-11T03:31:39;2.30;70.30
14585;DHT22;7379;51.506;11.876;2022-12-11T03:34:12;2.30;70.30
14585;DHT22;7379;51.506;11.876;2022-12-11T03:36:42;2.20;70.20
14585;DHT22;7379;51.506;11.876;2022-12-11T03:39:14;2.30;70.30
14585;DHT22;7379;51.506;11.876;2022-12-11T03:41:44;2.20;70.20
14585;DHT22;7379;51.506;11.876;2022-12-11T03:44:12;2.20;70.10
14585;DHT22;7379;51.506;11.876;2022-12-11T03:46:42;2.20;70.10
14585;DHT22;7379;51.506;11.876;2022-12-11T03:49:15;2.20;70.00
14585;DHT22;7379;51.506;11.876;2022-12-11T03:51:43;2.20;70.00
14585;DHT22;7379;51.506;11.876;2022-12-11T03:54:12;2.20;70.00
14585;DHT22;7379;51.506;11.876;2022-12-11T03:56:40;2.20;70.00
14585;DHT22;7379;51.506;11.876;2022-12-11T03:59:08;2.20;69.80
14585;DHT22;7379;51.506;11.876;2022-12-11T04:01:35;2.20;69.80
14585;DHT22;7379;51.506;11.876;2022-12-11T04:04:04;2.20;69.70
14585;DHT22;7379;51.506;11.876;2022-12-11T04:06:31;2.20;69.70
14585;DHT22;7379;51.506;11.876;2022-12-11T04:08:57;2.20;69.80
14585;DHT22;7379;51.506;11.876;2022-12-11T04:11:24;2.20;69.70
14585;DHT22;7379;51.506;11.876;2022-12-11T04:14:00;2.20;69.60
14585;DHT22;7379;51.506;11.876;2022-12-11T04:16:44;2.20;69.70
14585;DHT22;7379;51.506;11.876;2022-12-11T04:19:12;2.20;69.70
14585;DHT22;7379;51.506;11.876;2022-12-11T04:21:56;2.20;69.70
14585;DHT22;7379;51.506;11.876;2022-12-11T04:24:40;2.20;69.70
14585;DHT22;7379;51.506;11.876;2022-12-11T04:27:07;2.20;69.70
14585;DHT22;7379;51.506;11.876;2022-12-11T04:29:34;2.20;69.70
14585;DHT22;7379;51.506;11.876;2022-12-11T04:32:01;2.20;69.70
14585;DHT22;7379;51.506;11.876;2022-12-11T04:34:29;2.20;69.70
14585;DHT22;7379;51.506;11.876;2022-12-11T04:36:56;2.20;69.70
14585;DHT22;7379;51.506;11.876;2022-12-11T04:39:23;2.10;69.50
14585;DHT22;7379;51.506;11.876;2022-12-11T04:41:49;2.20;69.60
14585;DHT22;7379;51.506;11.876;2022-12-11T04:44:16;2.10;69.60
14585;DHT22;7379;51.506;11.876;2022-12-11T04:46:43;2.10;69.50
14585;DHT22;7379;51.506;11.876;2022-12-11T04:49:10;2.10;69.40
14585;DHT22;7379;51.506;11.876;2022-12-11T04:51:38;2.20;69.50
14585;DHT22;7379;51.506;11.876;2022-12-11T04:54:05;2.10;69.40
14585;DHT22;7379;51.506;11.876;2022-12-11T04:56:31;2.10;69.30
14585;DHT22;7379;51.506;11.876;2022-12-11T04:58:58;2.10;69.30
14585;DHT22;7379;51.506;11.876;2022-12-11T05:01:26;2.10;69.40
14585;DHT22;7379;51.506;11.876;2022-12-11T05:03:53;2.10;69.40
14585;DHT22;7379;51.506;11.876;2022-12-11T05:06:20;2.10;69.40
14585;DHT22;7379;51.506;11.876;2022-12-11T05:08:48;2.10;69.40
14585;DHT22;7379;51.506;11.876;2022-12-11T05:11:16;2.10;69.30
14585;DHT22;7379;51.506;11.876;2022-12-11T05:13:44;2.10;69.30
14585;DHT22;7379;51.506;11.876;2022-12-11T05:16:13;2.10;69.40
14585;DHT22;7379;51.506;11.876;2022-12-11T05:18:40;2.10;69.30
14585;DHT22;7379;51.506;11.876;2022-12-11T05:21:10;2.10;69.30
14585;DHT22;7379;51.506;11.876;2022-12-11T05:23:37;2.10;69.30
14585;DHT22;7379;51.506;11.876;2022-12-11T05:26:07;2.10;69.30
14585;DHT22;7379;51.506;11.876;2022-12-11T05:28:36;2.10;69.30
14585;DHT22;7379;51.506;11.876;2022-12-11T05:31:06;2.10;69.30
14585;DHT22;7379;51.506;11.876;2022-12-11T05:33:33;2.10;69.40
14585;DHT22;7379;51.506;11.876;2022-12-11T05:36:00;2.10;69.30
14585;DHT22;7379;51.506;11.876;2022-12-11T05:38:27;2.10;69.40
14585;DHT22;7379;51.506;11.876;2022-12-11T05:40:55;2.10;69.40
14585;DHT22;7379;51.506;11.876;2022-12-11T05:43:24;2.10;69.40
14585;DHT22;7379;51.506;11.876;2022-12-11T05:45:52;2.10;69.30
14585;DHT22;7379;51.506;11.876;2022-12-11T05:48:19;2.10;69.30
14585;DHT22;7379;51.506;11.876;2022-12-11T05:50:55;2.10;69.30
14585;DHT22;7379;51.506;11.876;2022-12-11T05:53:23;2.10;69.40
14585;DHT22;7379;51.506;11.876;2022-12-11T05:55:50;2.10;70.10
14585;DHT22;7379;51.506;11.876;2022-12-11T05:58:17;2.10;69.30
14585;DHT22;7379;51.506;11.876;2022-12-11T06:00:45;2.10;69.30
14585;DHT22;7379;51.506;11.876;2022-12-11T06:03:12;2.10;69.20
14585;DHT22;7379;51.506;11.876;2022-12-11T06:05:40;2.00;69.10
14585;DHT22;7379;51.506;11.876;2022-12-11T06:08:07;2.00;69.10
14585;DHT22;7379;51.506;11.876;2022-12-11T06:10:34;2.00;69.10
14585;DHT22;7379;51.506;11.876;2022-12-11T06:13:01;2.00;69.90
14585;DHT22;7379;51.506;11.876;2022-12-11T06:15:28;2.00;69.20
14585;DHT22;7379;51.506;11.876;2022-12-11T06:17:56;2.10;69.10
14585;DHT22;7379;51.506;11.876;2022-12-11T06:20:23;2.00;69.10
14585;DHT22;7379;51.506;11.876;2022-12-11T06:22:50;2.00;69.00
14585;DHT22;7379;51.506;11.876;2022-12-11T06:25:17;2.00;68.90
14585;DHT22;7379;51.506;11.876;2022-12-11T06:27:43;2.00;69.00
14585;DHT22;7379;51.506;11.876;2022-12-11T06:30:11;2.00;69.00
14585;DHT22;7379;51.506;11.876;2022-12-11T06:32:38;2.00;69.10
14585;DHT22;7379;51.506;11.876;2022-12-11T06:35:07;2.00;69.00
14585;DHT22;7379;51.506;11.876;2022-12-11T06:37:33;2.00;69.00
14585;DHT22;7379;51.506;11.876;2022-12-11T06:40:01;2.00;68.90
14585;DHT22;7379;51.506;11.876;2022-12-11T06:42:28;2.00;68.90
14585;DHT22;7379;51.506;11.876;2022-12-11T06:44:55;2.00;68.60
14585;DHT22;7379;51.506;11.876;2022-12-11T06:47:24;2.00;68.70
14585;DHT22;7379;51.506;11.876;2022-12-11T06:49:51;2.00;68.80
14585;DHT22;7379;51.506;11.876;2022-12-11T06:52:19;2.00;68.90
14585;DHT22;7379;51.506;11.876;2022-12-11T06:54:46;2.00;68.80
14585;DHT22;7379;51.506;11.876;2022-12-11T06:57:13;2.00;68.90
14585;DHT22;7379;51.506;11.876;2022-12-11T06:59:40;2.00;68.90
14585;DHT22;7379;51.506;11.876;2022-12-11T07:02:09;2.00;68.90
14585;DHT22;7379;51.506;11.876;2022-12-11T07:04:37;2.00;68.90
14585;DHT22;7379;51.506;11.876;2022-12-11T07:07:04;2.00;68.90
14585;DHT22;7379;51.506;11.876;2022-12-11T07:09:32;2.00;69.80
14585;DHT22;7379;51.506;11.876;2022-12-11T07:11:59;2.00;69.10
14585;DHT22;7379;51.506;11.876;2022-12-11T07:14:26;2.00;69.00
14585;DHT22;7379;51.506;11.876;2022-12-11T07:16:53;2.00;69.00
14585;DHT22;7379;51.506;11.876;2022-12-11T07:19:19;1.90;69.00
14585;DHT22;7379;51.506;11.876;2022-12-11T07:21:46;1.90;68.90
14585;DHT22;7379;51.506;11.876;2022-12-11T07:24:13;1.90;68.90
14585;DHT22;7379;51.506;11.876;2022-12-11T07:26:41;1.90;68.90
14585;DHT22;7379;51.506;11.876;2022-12-11T07:29:08;1.90;68.90
14585;DHT22;7379;51.506;11.876;2022-12-11T07:31:36;1.90;68.90
14585;DHT22;7379;51.506;11.876;2022-12-11T07:34:04;1.90;68.90
14585;DHT22;7379;51.506;11.876;2022-12-11T07:36:32;1.90;68.90
14585;DHT22;7379;51.506;11.876;2022-12-11T07:38:59;1.90;68.90
14585;DHT22;7379;51.506;11.876;2022-12-11T07:41:27;1.90;69.00
14585;DHT22;7379;51.506;11.876;2022-12-11T07:43:55;1.90;69.00
14585;DHT22;7379;51.506;11.876;2022-12-11T07:46:24;1.90;68.90
14585;DHT22;7379;51.506;11.876;2022-12-11T07:48:51;1.90;68.90
14585;DHT22;7379;51.506;11.876;2022-12-11T07:51:20;1.90;68.90
14585;DHT22;7379;51.506;11.876;2022-12-11T07:53:49;1.90;68.90
14585;DHT22;7379;51.506;11.876;2022-12-11T07:56:17;1.90;68.90
14585;DHT22;7379;51.506;11.876;2022-12-11T07:58:44;1.90;69.00
14585;DHT22;7379;51.506;11.876;2022-12-11T08:01:14;1.90;68.90
14585;DHT22;7379;51.506;11.876;2022-12-11T08:03:41;1.90;68.90
14585;DHT22;7379;51.506;11.876;2022-12-11T08:06:08;1.90;68.90
14585;DHT22;7379;51.506;11.876;2022-12-11T08:08:35;1.90;68.90
14585;DHT22;7379;51.506;11.876;2022-12-11T08:11:03;1.90;68.90
14585;DHT22;7379;51.506;11.876;2022-12-11T08:13:31;1.90;69.20
14585;DHT22;7379;51.506;11.876;2022-12-11T08:15:58;1.90;68.80
14585;DHT22;7379;51.506;11.876;2022-12-11T08:18:30;1.90;68.80
14585;DHT22;7379;51.506;11.876;2022-12-11T08:20:56;1.90;68.80
14585;DHT22;7379;51.506;11.876;2022-12-11T08:23:23;1.90;68.80
14585;DHT22;7379;51.506;11.876;2022-12-11T08:25:50;1.90;68.90
14585;DHT22;7379;51.506;11.876;2022-12-11T08:28:17;1.90;68.90
14585;DHT22;7379;51.506;11.876;2022-12-11T08:30:44;1.90;68.80
14585;DHT22;7379;51.506;11.876;2022-12-11T08:33:10;1.90;68.80
14585;DHT22;7379;51.506;11.876;2022-12-11T08:35:39;1.90;68.80
14585;DHT22;7379;51.506;11.876;2022-12-11T08:38:06;1.90;68.80
14585;DHT22;7379;51.506;11.876;2022-12-11T08:40:33;1.90;68.90
14585;DHT22;7379;51.506;11.876;2022-12-11T08:42:59;1.90;68.80
14585;DHT22;7379;51.506;11.876;2022-12-11T08:45:26;1.90;68.80
14585;DHT22;7379;51.506;11.876;2022-12-11T08:47:53;1.80;68.70
14585;DHT22;7379;51.506;11.876;2022-12-11T08:50:20;1.80;68.70
14585;DHT22;7379;51.506;11.876;2022-12-11T08:52:48;1.80;68.80
14585;DHT22;7379;51.506;11.876;2022-12-11T08:55:15;1.90;68.80
14585;DHT22;7379;51.506;11.876;2022-12-11T08:57:41;1.90;68.80
14585;DHT22;7379;51.506;11.876;2022-12-11T09:00:11;1.90;68.70
14585;DHT22;7379;51.506;11.876;2022-12-11T09:02:38;1.90;68.70
14585;DHT22;7379;51.506;11.876;2022-12-11T09:05:05;1.90;68.70
14585;DHT22;7379;51.506;11.876;2022-12-11T09:07:34;1.90;68.60
14585;DHT22;7379;51.506;11.876;2022-12-11T09:10:03;1.80;68.50
14585;DHT22;7379;51.506;11.876;2022-12-11T09:12:31;1.90;68.50
14585;DHT22;7379;51.506;11.876;2022-12-11T09:14:58;1.90;68.50
14585;DHT22;7379;51.506;11.876;2022-12-11T09:17:25;1.90;68.60
14585;DHT22;7379;51.506;11.876;2022-12-11T09:19:52;1.90;68.60
14585;DHT22;7379;51.506;11.876;2022-12-11T09:22:19;1.90;68.60
14585;DHT22;7379;51.506;11.876;2022-12-11T09:24:45;1.90;68.50
14585;DHT22;7379;51.506;11.876;2022-12-11T09:27:14;1.90;68.50
14585;DHT22;7379;51.506;11.876;2022-12-11T09:29:41;1.80;68.40
14585;DHT22;7379;51.506;11.876;2022-12-11T09:32:07;1.90;68.40
14585;DHT22;7379;51.506;11.876;2022-12-11T09:34:34;1.80;68.40
14585;DHT22;7379;51.506;11.876;2022-12-11T09:37:01;1.90;68.50
14585;DHT22;7379;51.506;11.876;2022-12-11T09:39:28;1.90;68.50
14585;DHT22;7379;51.506;11.876;2022-12-11T09:41:59;1.80;68.40
14585;DHT22;7379;51.506;11.876;2022-12-11T09:44:36;1.90;68.40
14585;DHT22;7379;51.506;11.876;2022-12-11T09:47:15;1.90;68.40
14585;DHT22;7379;51.506;11.876;2022-12-11T09:49:43;1.80;68.30
14585;DHT22;7379;51.506;11.876;2022-12-11T09:52:14;1.80;68.40
14585;DHT22;7379;51.506;11.876;2022-12-11T09:54:51;1.80;68.30
14585;DHT22;7379;51.506;11.876;2022-12-11T09:57:31;1.90;68.40
14585;DHT22;7379;51.506;11.876;2022-12-11T10:00:08;1.90;68.30
14585;DHT22;7379;51.506;11.876;2022-12-11T10:02:49;1.90;68.30
14585;DHT22;7379;51.506;11.876;2022-12-11T10:05:27;1.80;68.10
14585;DHT22;7379;51.506;11.876;2022-12-11T10:08:02;1.90;68.20
14585;DHT22;7379;51.506;11.876;2022-12-11T10:10:39;1.80;68.20
14585;DHT22;7379;51.506;11.876;2022-12-11T10:13:16;1.80;68.20
14585;DHT22;7379;51.506;11.876;2022-12-11T10:15:50;1.80;68.20
14585;DHT22;7379;51.506;11.876;2022-12-11T10:18:20;1.80;68.20
14585;DHT22;7379;51.506;11.876;2022-12-11T10:20:49;1.80;68.10
14585;DHT22;7379;51.506;11.876;2022-12-11T10:23:19;1.80;68.10
14585;DHT22;7379;51.506;11.876;2022-12-11T10:25:50;1.80;68.10
14585;DHT22;7379;51.506;11.876;2022-12-11T10:28:20;1.80;68.00
14585;DHT22;7379;51.506;11.876;2022-12-11T10:30:52;1.80;68.10
14585;DHT22;7379;51.506;11.876;2022-12-11T10:33:22;1.80;67.70
14585;DHT22;7379;51.506;11.876;2022-12-11T10:35:52;1.80;67.30
14585;DHT22;7379;51.506;11.876;2022-12-11T10:38:23;1.80;67.50
14585;DHT22;7379;51.506;11.876;2022-12-11T10:40:55;1.80;67.60
14585;DHT22;7379;51.506;11.876;2022-12-11T10:43:32;1.80;67.60
14585;DHT22;7379;51.506;11.876;2022-12-11T10:46:01;1.80;67.70
14585;DHT22;7379;51.506;11.876;2022-12-11T10:48:28;1.80;67.70
14585;DHT22;7379;51.506;11.876;2022-12-11T10:50:58;1.80;68.50
14585;DHT22;7379;51.506;11.876;2022-12-11T10:53:26;1.80;67.70
14585;DHT22;7379;51.506;11.876;2022-12-11T10:55:54;1.80;67.60
14585;DHT22;7379;51.506;11.876;2022-12-11T10:58:24;1.80;67.70
14585;DHT22;7379;51.506;11.876;2022-12-11T11:01:04;1.80;67.70
14585;DHT22;7379;51.506;11.876;2022-12-11T11:03:32;1.80;67.70
14585;DHT22;7379;51.506;11.876;2022-12-11T11:06:05;1.80;67.70
14585;DHT22;7379;51.506;11.876;2022-12-11T11:08:39;1.80;67.70
14585;DHT22;7379;51.506;11.876;2022-12-11T11:11:20;1.80;67.80
14585;DHT22;7379;51.506;11.876;2022-12-11T11:13:47;1.80;67.90
14585;DHT22;7379;51.506;11.876;2022-12-11T11:16:17;1.80;67.90
14585;DHT22;7379;51.506;11.876;2022-12-11T11:18:51;1.80;67.90
14585;DHT22;7379;51.506;11.876;2022-12-11T11:21:20;1.80;67.90
14585;DHT22;7379;51.506;11.876;2022-12-11T11:23:48;1.80;67.90
14585;DHT22;7379;51.506;11.876;2022-12-11T11:26:15;1.80;67.90
14585;DHT22;7379;51.506;11.876;2022-12-11T11:28:47;1.80;67.90
14585;DHT22;7379;51.506;11.876;2022-12-11T11:31:17;1.90;68.00
14585;DHT22;7379;51.506;11.876;2022-12-11T11:33:55;1.90;67.90
14585;DHT22;7379;51.506;11.876;2022-12-11T11:36:25;1.90;67.80
14585;DHT22;7379;51.506;11.876;2022-12-11T11:39:12;1.80;67.70
14585;DHT22;7379;51.506;11.876;2022-12-11T11:41:45;1.90;67.80
14585;DHT22;7379;51.506;11.876;2022-12-11T11:44:21;1.80;67.90
14585;DHT22;7379;51.506;11.876;2022-12-11T11:46:58;1.80;67.90
14585;DHT22;7379;51.506;11.876;2022-12-11T11:49:43;1.90;68.00
14585;DHT22;7379;51.506;11.876;2022-12-11T11:52:16;1.90;68.00
14585;DHT22;7379;51.506;11.876;2022-12-11T11:54:51;1.80;68.00
14585;DHT22;7379;51.506;11.876;2022-12-11T11:57:23;1.80;68.00
14585;DHT22;7379;51.506;11.876;2022-12-11T11:59:55;1.90;68.00
14585;DHT22;7379;51.506;11.876;2022-12-11T12:02:24;1.80;67.90
14585;DHT22;7379;51.506;11.876;2022-12-11T12:04:51;1.90;68.00
14585;DHT22;7379;51.506;11.876;2022-12-11T12:07:29;1.90;68.00
14585;DHT22;7379;51.506;11.876;2022-12-11T12:10:05;1.80;67.90
14585;DHT22;7379;51.506;11.876;2022-12-11T12:12:39;1.90;67.90
14585;DHT22;7379;51.506;11.876;2022-12-11T12:15:20;1.90;68.00
14585;DHT22;7379;51.506;11.876;2022-12-11T12:17:52;1.80;67.90
14585;DHT22;7379;51.506;11.876;2022-12-11T12:20:28;1.80;67.90
14585;DHT22;7379;51.506;11.876;2022-12-11T12:23:02;1.90;68.10
14585;DHT22;7379;51.506;11.876;2022-12-11T12:25:36;1.90;68.10
14585;DHT22;7379;51.506;11.876;2022-12-11T12:28:13;1.90;68.10
14585;DHT22;7379;51.506;11.876;2022-12-11T12:30:48;1.80;68.00
14585;DHT22;7379;51.506;11.876;2022-12-11T12:33:30;1.80;68.00
14585;DHT22;7379;51.506;11.876;2022-12-11T12:36:08;1.90;68.10
14585;DHT22;7379;51.506;11.876;2022-12-11T12:38:46;1.90;68.10
14585;DHT22;7379;51.506;11.876;2022-12-11T12:41:21;1.80;68.00
14585;DHT22;7379;51.506;11.876;2022-12-11T12:44:00;1.90;68.00
14585;DHT22;7379;51.506;11.876;2022-12-11T12:46:39;1.80;67.90
14585;DHT22;7379;51.506;11.876;2022-12-11T12:49:14;1.90;68.00
14585;DHT22;7379;51.506;11.876;2022-12-11T12:51:42;1.80;67.90
14585;DHT22;7379;51.506;11.876;2022-12-11T12:54:13;1.90;68.10
14585;DHT22;7379;51.506;11.876;2022-12-11T12:56:41;1.80;68.00
14585;DHT22;7379;51.506;11.876;2022-12-11T12:59:19;1.80;68.00
14585;DHT22;7379;51.506;11.876;2022-12-11T13:01:49;1.80;68.80
14585;DHT22;7379;51.506;11.876;2022-12-11T13:04:29;1.90;68.10
14585;DHT22;7379;51.506;11.876;2022-12-11T13:07:10;1.90;68.00
14585;DHT22;7379;51.506;11.876;2022-12-11T13:09:38;1.80;67.90
14585;DHT22;7379;51.506;11.876;2022-12-11T13:12:12;1.80;67.70
14585;DHT22;7379;51.506;11.876;2022-12-11T13:14:39;1.70;66.20
14585;DHT22;7379;51.506;11.876;2022-12-11T13:17:23;1.60;65.40
14585;DHT22;7379;51.506;11.876;2022-12-11T13:20:11;1.60;65.00
14585;DHT22;7379;51.506;11.876;2022-12-11T13:22:52;1.60;65.40
14585;DHT22;7379;51.506;11.876;2022-12-11T13:25:26;1.60;65.80
14585;DHT22;7379;51.506;11.876;2022-12-11T13:28:04;1.60;66.10
14585;DHT22;7379;51.506;11.876;2022-12-11T13:30:31;1.60;66.40
14585;DHT22;7379;51.506;11.876;2022-12-11T13:33:02;1.60;66.50
14585;DHT22;7379;51.506;11.876;2022-12-11T13:35:32;1.60;66.60
14585;DHT22;7379;51.506;11.876;2022-12-11T13:38:03;1.70;66.80
14585;DHT22;7379;51.506;11.876;2022-12-11T13:40:37;1.70;66.90
14585;DHT22;7379;51.506;11.876;2022-12-11T13:43:07;1.70;67.00
14585;DHT22;7379;51.506;11.876;2022-12-11T13:45:42;1.70;67.00
14585;DHT22;7379;51.506;11.876;2022-12-11T13:48:17;1.70;67.90
14585;DHT22;7379;51.506;11.876;2022-12-11T13:50:46;1.70;67.20
14585;DHT22;7379;51.506;11.876;2022-12-11T13:53:15;1.70;67.30
14585;DHT22;7379;51.506;11.876;2022-12-11T13:55:42;1.70;67.30
14585;DHT22;7379;51.506;11.876;2022-12-11T13:58:15;1.70;67.30
14585;DHT22;7379;51.506;11.876;2022-12-11T14:00:53;1.70;67.30
14585;DHT22;7379;51.506;11.876;2022-12-11T14:03:23;1.70;67.30
14585;DHT22;7379;51.506;11.876;2022-12-11T14:05:51;1.70;67.30
14585;DHT22;7379;51.506;11.876;2022-12-11T14:08:21;1.70;67.30
14585;DHT22;7379;51.506;11.876;2022-12-11T14:10:51;1.70;67.30
14585;DHT22;7379;51.506;11.876;2022-12-11T14:13:22;1.70;67.40
14585;DHT22;7379;51.506;11.876;2022-12-11T14:15:51;1.70;67.40
14585;DHT22;7379;51.506;11.876;2022-12-11T14:18:21;1.70;67.30
14585;DHT22;7379;51.506;11.876;2022-12-11T14:20:54;1.70;67.40
14585;DHT22;7379;51.506;11.876;2022-12-11T14:23:23;1.70;67.40
14585;DHT22;7379;51.506;11.876;2022-12-11T14:25:52;1.70;67.50
14585;DHT22;7379;51.506;11.876;2022-12-11T14:28:20;1.70;67.50
14585;DHT22;7379;51.506;11.876;2022-12-11T14:30:49;1.70;67.50
14585;DHT22;7379;51.506;11.876;2022-12-11T14:33:18;1.70;67.50
14585;DHT22;7379;51.506;11.876;2022-12-11T14:35:47;1.70;67.50
14585;DHT22;7379;51.506;11.876;2022-12-11T14:38:20;1.70;67.60
14585;DHT22;7379;51.506;11.876;2022-12-11T14:40:52;1.70;67.60
14585;DHT22;7379;51.506;11.876;2022-12-11T14:43:24;1.60;67.50
14585;DHT22;7379;51.506;11.876;2022-12-11T14:45:56;1.70;68.40
14585;DHT22;7379;51.506;11.876;2022-12-11T14:48:29;1.70;67.70
14585;DHT22;7379;51.506;11.876;2022-12-11T14:51:00;1.60;67.60
14585;DHT22;7379;51.506;11.876;2022-12-11T14:53:34;1.70;67.80
14585;DHT22;7379;51.506;11.876;2022-12-11T14:56:04;1.70;67.80
14585;DHT22;7379;51.506;11.876;2022-12-11T14:58:37;1.70;67.70
14585;DHT22;7379;51.506;11.876;2022-12-11T15:01:19;1.70;67.70
14585;DHT22;7379;51.506;11.876;2022-12-11T15:03:46;1.60;67.70
14585;DHT22;7379;51.506;11.876;2022-12-11T15:06:24;1.60;67.70
14585;DHT22;7379;51.506;11.876;2022-12-11T15:08:55;1.60;67.80
14585;DHT22;7379;51.506;11.876;2022-12-11T15:11:22;1.60;67.80
14585;DHT22;7379;51.506;11.876;2022-12-11T15:13:52;1.60;67.70
14585;DHT22;7379;51.506;11.876;2022-12-11T15:16:21;1.60;67.70
14585;DHT22;7379;51.506;11.876;2022-12-11T15:18:50;1.60;67.80
14585;DHT22;7379;51.506;11.876;2022-12-11T15:21:18;1.60;67.80
14585;DHT22;7379;51.506;11.876;2022-12-11T15:23:50;1.60;67.70
14585;DHT22;7379;51.506;11.876;2022-12-11T15:26:20;1.60;67.70
14585;DHT22;7379;51.506;11.876;2022-12-11T15:28:58;1.60;67.80
14585;DHT22;7379;51.506;11.876;2022-12-11T15:31:28;1.60;67.90
14585;DHT22;7379;51.506;11.876;2022-12-11T15:33:55;1.60;67.90
14585;DHT22;7379;51.506;11.876;2022-12-11T15:36:24;1.60;67.90
14585;DHT22;7379;51.506;11.876;2022-12-11T15:38:51;1.60;68.00
14585;DHT22;7379;51.506;11.876;2022-12-11T15:41:19;1.60;68.00
14585;DHT22;7379;51.506;11.876;2022-12-11T15:43:49;1.60;68.00
14585;DHT22;7379;51.506;11.876;2022-12-11T15:46:17;1.60;68.10
14585;DHT22;7379;51.506;11.876;2022-12-11T15:48:43;1.60;68.10
14585;DHT22;7379;51.506;11.876;2022-12-11T15:51:10;1.60;68.10
14585;DHT22;7379;51.506;11.876;2022-12-11T15:53:37;1.60;68.20
14585;DHT22;7379;51.506;11.876;2022-12-11T15:56:04;1.60;68.20
14585;DHT22;7379;51.506;11.876;2022-12-11T15:58:33;1.60;68.20
14585;DHT22;7379;51.506;11.876;2022-12-11T16:01:00;1.60;68.20
14585;DHT22;7379;51.506;11.876;2022-12-11T16:03:27;1.60;68.20